createdAt,value
2023-04-28T00:02:49.023Z,16.20
2023-04-28T00:05:40.616Z,16.10
2023-04-28T00:08:31.916Z,16.20
2023-04-28T00:11:24.673Z,16.30
2023-04-28T00:14:16.304Z,16.30
2023-04-28T00:17:09.654Z,16.30
2023-04-28T00:20:01.156Z,16.40
2023-04-28T00:25:33.541Z,16.40
2023-04-28T00:31:18.350Z,16.50
2023-04-28T00:34:11.571Z,16.60
2023-04-28T00:37:03.165Z,16.60
2023-04-28T00:39:58.037Z,16.60
2023-04-28T00:42:49.419Z,16.60
2023-04-28T00:45:41.390Z,16.60
2023-04-28T00:48:32.634Z,16.60
2023-04-28T00:51:23.743Z,16.60
2023-04-28T00:54:17.000Z,16.50
2023-04-28T00:57:08.728Z,16.50
2023-04-28T01:00:00.177Z,16.50
2023-04-28T01:02:53.642Z,16.50
2023-04-28T01:05:46.269Z,16.50
2023-04-28T01:08:39.180Z,16.50
2023-04-28T01:11:32.009Z,16.40
2023-04-28T01:14:34.760Z,16.40
2023-04-28T01:17:26.130Z,16.40
2023-04-28T01:20:18.020Z,16.40
2023-04-28T01:23:14.031Z,16.40
2023-04-28T01:26:05.731Z,16.20
2023-04-28T01:31:37.267Z,16.20
2023-04-28T01:34:28.748Z,16.10
2023-04-28T01:37:20.331Z,15.90
2023-04-28T01:40:13.665Z,15.90
2023-04-28T01:43:05.287Z,15.80
2023-04-28T01:45:56.926Z,15.80
2023-04-28T01:48:48.553Z,15.70
2023-04-28T01:51:40.767Z,15.60
2023-04-28T01:54:32.141Z,15.60
2023-04-28T01:57:24.112Z,15.60
2023-04-28T02:00:16.806Z,15.50
2023-04-28T02:03:09.739Z,15.40
2023-04-28T02:06:03.641Z,15.30
2023-04-28T02:08:55.037Z,15.40
2023-04-28T02:11:46.284Z,15.40
2023-04-28T02:14:37.698Z,15.50
2023-04-28T02:17:30.444Z,15.50
2023-04-28T02:20:21.809Z,15.50
2023-04-28T02:23:12.979Z,15.50
2023-04-28T02:26:05.228Z,15.60
2023-04-28T02:28:56.819Z,15.50
2023-04-28T02:31:48.916Z,15.60
2023-04-28T02:34:41.930Z,15.50
2023-04-28T02:37:33.397Z,15.50
2023-04-28T02:40:24.968Z,15.50
2023-04-28T02:43:16.239Z,15.50
2023-04-28T02:46:08.316Z,15.60
2023-04-28T02:49:00.300Z,15.50
2023-04-28T02:51:51.576Z,15.40
2023-04-28T02:54:43.172Z,15.40
2023-04-28T02:57:34.473Z,15.40
2023-04-28T03:00:26.638Z,15.30
2023-04-28T03:03:18.373Z,15.20
2023-04-28T03:06:11.471Z,15.10
2023-04-28T03:09:02.663Z,15.00
2023-04-28T03:11:54.017Z,14.80
2023-04-28T03:14:45.566Z,14.60
2023-04-28T03:17:39.072Z,14.60
2023-04-28T03:20:30.718Z,14.60
2023-04-28T03:23:22.439Z,14.70
2023-04-28T03:26:13.861Z,14.70
2023-04-28T03:29:05.839Z,14.70
2023-04-28T03:31:58.384Z,14.60
2023-04-28T03:34:53.928Z,14.60
2023-04-28T03:37:47.124Z,14.70
2023-04-28T03:40:41.131Z,14.60
2023-04-28T03:43:39.438Z,14.60
2023-04-28T03:46:34.750Z,14.40
2023-04-28T03:49:30.045Z,14.40
2023-04-28T03:52:22.719Z,14.40
2023-04-28T03:55:16.552Z,14.40
2023-04-28T03:58:12.972Z,14.30
2023-04-28T04:01:07.086Z,14.30
2023-04-28T04:04:05.057Z,14.40
2023-04-28T04:06:59.016Z,14.30
2023-04-28T04:09:56.242Z,14.40
2023-04-28T04:12:49.047Z,14.40
2023-04-28T04:15:45.782Z,14.50
2023-04-28T04:18:39.750Z,14.40
2023-04-28T04:21:35.889Z,14.40
2023-04-28T04:24:28.423Z,14.40
2023-04-28T04:27:20.132Z,14.40
2023-04-28T04:30:15.001Z,14.40
2023-04-28T04:33:07.670Z,14.50
2023-04-28T04:36:02.564Z,14.60
2023-04-28T04:38:55.568Z,14.60
2023-04-28T04:41:48.462Z,14.60
2023-04-28T04:44:45.921Z,14.50
2023-04-28T04:47:40.772Z,14.50
2023-04-28T04:50:35.086Z,14.50
2023-04-28T04:53:28.513Z,14.50
2023-04-28T04:56:23.181Z,14.60
2023-04-28T04:59:15.396Z,14.60
2023-04-28T05:02:12.822Z,14.70
2023-04-28T05:05:19.720Z,14.60
2023-04-28T05:08:03.866Z,14.70
2023-04-28T05:11:00.196Z,14.70
2023-04-28T05:13:54.548Z,14.70
2023-04-28T05:16:58.826Z,14.80
2023-04-28T05:19:53.561Z,14.90
2023-04-28T05:22:47.026Z,15.00
2023-04-28T05:25:39.061Z,15.10
2023-04-28T05:28:35.560Z,15.20
2023-04-28T05:31:30.411Z,15.20
2023-04-28T05:34:23.797Z,15.40
2023-04-28T05:37:16.823Z,15.40
2023-04-28T05:40:20.396Z,15.50
2023-04-28T05:43:14.540Z,15.50
2023-04-28T05:46:22.262Z,15.60
2023-04-28T05:49:04.220Z,15.70
2023-04-28T05:52:01.870Z,15.60
2023-04-28T05:54:57.257Z,15.70
2023-04-28T05:57:53.681Z,15.80
2023-04-28T06:00:47.360Z,15.80
2023-04-28T06:03:40.978Z,15.70
2023-04-28T06:06:35.067Z,15.60
2023-04-28T06:09:28.830Z,15.60
2023-04-28T06:12:23.558Z,15.60
2023-04-28T06:15:21.159Z,15.60
2023-04-28T06:18:21.899Z,15.50
2023-04-28T06:21:16.268Z,15.50
2023-04-28T06:24:09.523Z,15.50
2023-04-28T06:27:05.980Z,15.50
2023-04-28T06:30:01.492Z,15.50
2023-04-28T06:32:55.648Z,15.50
2023-04-28T06:35:49.346Z,15.40
2023-04-28T06:38:43.981Z,15.40
2023-04-28T06:41:38.568Z,15.30
2023-04-28T06:44:31.753Z,15.30
2023-04-28T06:47:27.602Z,15.40
2023-04-28T06:50:23.323Z,15.30
2023-04-28T06:53:17.801Z,15.20
2023-04-28T06:56:11.463Z,15.30
2023-04-28T06:59:05.373Z,15.30
2023-04-28T07:02:06.828Z,15.40
2023-04-28T07:05:01.038Z,15.50
2023-04-28T07:07:54.400Z,15.60
2023-04-28T07:10:45.881Z,15.70
2023-04-28T07:13:40.701Z,15.80
2023-04-28T07:16:32.405Z,15.80
2023-04-28T07:19:24.213Z,15.90
2023-04-28T07:22:15.809Z,16.00
2023-04-28T07:25:08.820Z,16.00
2023-04-28T07:28:00.296Z,16.10
2023-04-28T07:30:52.221Z,16.20
2023-04-28T07:33:43.827Z,16.20
2023-04-28T07:36:37.514Z,16.30
2023-04-28T07:39:29.554Z,16.30
2023-04-28T07:42:21.691Z,16.40
2023-04-28T07:45:14.105Z,16.50
2023-04-28T07:48:05.826Z,16.70
2023-04-28T07:50:57.288Z,16.80
2023-04-28T07:53:48.814Z,17.00
2023-04-28T07:56:40.282Z,17.00
2023-04-28T07:59:33.143Z,17.20
2023-04-28T08:02:24.691Z,17.20
2023-04-28T08:05:17.467Z,17.30
2023-04-28T08:08:09.360Z,17.30
2023-04-28T08:11:00.765Z,17.30
2023-04-28T08:13:52.152Z,17.30
2023-04-28T08:16:43.748Z,17.30
2023-04-28T08:19:35.434Z,17.40
2023-04-28T08:22:27.208Z,17.50
2023-04-28T08:25:19.032Z,17.70
2023-04-28T08:28:10.681Z,17.80
2023-04-28T08:31:02.267Z,18.00
2023-04-28T08:33:55.531Z,18.10
2023-04-28T08:36:47.121Z,18.20
2023-04-28T08:39:39.042Z,18.30
2023-04-28T08:42:32.495Z,18.50
2023-04-28T08:45:28.327Z,18.60
2023-04-28T08:48:22.260Z,18.70
2023-04-28T08:54:18.919Z,19.00
2023-04-28T08:56:50.484Z,19.10
2023-04-28T08:59:43.018Z,19.10
2023-04-28T09:02:34.248Z,19.20
2023-04-28T09:05:26.334Z,19.30
2023-04-28T09:11:21.079Z,19.50
2023-04-28T09:16:55.793Z,19.70
2023-04-28T09:19:47.131Z,19.90
2023-04-28T09:22:38.624Z,19.90
2023-04-28T09:25:30.056Z,20.00
2023-04-28T09:28:25.166Z,20.20
2023-04-28T09:31:28.093Z,20.30
2023-04-28T09:34:19.888Z,20.50
2023-04-28T09:37:20.190Z,20.60
2023-04-28T09:40:13.451Z,20.80
2023-04-28T09:43:11.889Z,20.90
2023-04-28T09:45:58.480Z,21.00
2023-04-28T09:48:49.859Z,21.00
2023-04-28T09:51:41.752Z,21.10
2023-04-28T09:54:35.361Z,21.10
2023-04-28T09:57:29.539Z,21.10
2023-04-28T10:00:21.767Z,21.10
2023-04-28T10:03:15.552Z,21.00
2023-04-28T10:11:30.742Z,21.00
2023-04-28T10:14:22.251Z,21.10
2023-04-28T10:17:15.549Z,21.10
2023-04-28T10:20:09.643Z,21.20
2023-04-28T10:25:44.806Z,21.40
2023-04-28T10:28:36.380Z,21.50
2023-04-28T10:31:27.867Z,21.50
2023-04-28T10:34:27.412Z,21.70
2023-04-28T10:37:19.591Z,21.70
2023-04-28T10:40:34.933Z,21.70
2023-04-28T10:43:40.441Z,21.60
2023-04-28T10:46:37.935Z,21.50
2023-04-28T10:50:07.508Z,21.50
2023-04-28T10:53:00.427Z,21.50
2023-04-28T10:55:57.942Z,21.70
2023-04-28T10:58:50.862Z,21.80
2023-04-28T11:01:42.788Z,22.00
2023-04-28T11:04:37.534Z,22.20
2023-04-28T11:07:29.144Z,22.30
2023-04-28T11:10:20.684Z,22.40
2023-04-28T11:16:11.589Z,22.60
2023-04-28T11:19:06.225Z,22.60
2023-04-28T11:21:58.981Z,22.70
2023-04-28T11:25:01.588Z,22.70
2023-04-28T11:27:53.122Z,22.80
2023-04-28T11:30:44.551Z,22.80
2023-04-28T11:33:38.003Z,22.90
2023-04-28T11:36:35.608Z,23.00
2023-04-28T11:39:29.607Z,23.10
2023-04-28T11:42:20.713Z,23.10
2023-04-28T11:45:14.012Z,23.30
2023-04-28T11:48:23.266Z,23.30
2023-04-28T11:51:36.429Z,23.30
2023-04-28T11:54:29.219Z,23.30
2023-04-28T11:57:23.248Z,23.50
2023-04-28T12:00:21.473Z,23.70
2023-04-28T12:03:13.240Z,23.90
2023-04-28T12:06:05.260Z,23.90
2023-04-28T12:08:57.539Z,24.00
2023-04-28T12:11:59.612Z,24.00
2023-04-28T12:14:58.447Z,23.90
2023-04-28T12:17:51.293Z,23.90
2023-04-28T12:20:43.988Z,24.00
2023-04-28T12:23:36.601Z,24.20
2023-04-28T12:26:28.384Z,24.40
2023-04-28T12:29:39.011Z,24.50
2023-04-28T12:32:44.504Z,24.50
2023-04-28T12:35:35.823Z,24.50
2023-04-28T12:38:27.466Z,24.60
2023-04-28T12:41:19.608Z,24.70
2023-04-28T12:44:10.875Z,24.70
2023-04-28T12:47:02.329Z,24.50
2023-04-28T12:49:53.911Z,24.50
2023-04-28T12:52:45.135Z,24.50
2023-04-28T12:55:36.781Z,24.40
2023-04-28T12:58:28.313Z,24.30
2023-04-28T13:01:19.938Z,24.40
2023-04-28T13:04:13.022Z,24.60
2023-04-28T13:07:04.422Z,24.70
2023-04-28T13:09:56.911Z,24.60
2023-04-28T13:15:27.914Z,24.90
2023-04-28T13:18:19.612Z,25.10
2023-04-28T13:23:59.300Z,25.30
2023-04-28T13:26:50.551Z,25.30
2023-04-28T13:29:41.927Z,25.30
2023-04-28T13:32:33.718Z,25.20
2023-04-28T13:35:26.458Z,25.20
2023-04-28T13:38:19.193Z,25.10
2023-04-28T13:41:10.498Z,25.30
2023-04-28T13:44:01.991Z,25.20
2023-04-28T13:46:56.670Z,25.00
2023-04-28T13:49:48.773Z,25.30
2023-04-28T13:52:39.924Z,25.40
2023-04-28T13:58:11.843Z,25.40
2023-04-28T14:01:04.123Z,25.50
2023-04-28T14:03:55.982Z,25.80
2023-04-28T14:06:47.757Z,25.70
2023-04-28T14:09:39.031Z,25.30
2023-04-28T14:12:30.409Z,25.10
2023-04-28T14:15:21.909Z,25.20
2023-04-28T14:18:14.637Z,25.30
2023-04-28T14:21:07.757Z,25.50
2023-04-28T14:23:59.244Z,25.50
2023-04-28T14:26:51.186Z,25.30
2023-04-28T14:29:43.089Z,25.30
2023-04-28T14:32:34.385Z,25.30
2023-04-28T14:35:27.050Z,25.50
2023-04-28T14:38:18.371Z,25.70
2023-04-28T14:41:09.826Z,25.70
2023-04-28T14:44:01.171Z,25.20
2023-04-28T14:46:53.455Z,24.90
2023-04-28T14:49:44.712Z,24.70
2023-04-28T14:52:36.352Z,24.70
2023-04-28T14:55:27.505Z,24.60
2023-04-28T14:58:18.601Z,24.80
2023-04-28T15:01:10.272Z,25.10
2023-04-28T15:04:01.605Z,25.20
2023-04-28T15:06:53.176Z,25.00
2023-04-28T15:09:44.577Z,24.90
2023-04-28T15:12:37.314Z,24.70
2023-04-28T15:15:28.664Z,24.50
2023-04-28T15:18:20.356Z,24.30
2023-04-28T15:21:11.763Z,24.20
2023-04-28T15:24:03.626Z,24.10
2023-04-28T15:26:55.356Z,24.00
2023-04-28T15:32:30.333Z,24.00
2023-04-28T15:35:22.210Z,23.90
2023-04-28T15:38:13.558Z,24.00
2023-04-28T15:41:05.064Z,23.90
2023-04-28T15:43:57.830Z,23.90
2023-04-28T15:46:49.015Z,23.90
2023-04-28T15:49:41.262Z,24.00
2023-04-28T15:55:14.842Z,24.00
2023-04-28T15:58:06.442Z,24.00
2023-04-28T16:00:59.602Z,24.00
2023-04-28T16:03:51.176Z,24.00
2023-04-28T16:06:43.259Z,23.90
2023-04-28T16:12:15.024Z,23.90
2023-04-28T16:15:08.831Z,24.00
2023-04-28T16:18:00.599Z,24.20
2023-04-28T16:20:53.354Z,24.30
2023-04-28T16:23:44.860Z,24.20
2023-04-28T16:26:36.387Z,24.10
2023-04-28T16:29:27.973Z,24.10
2023-04-28T16:32:19.553Z,24.00
2023-04-28T16:35:15.062Z,23.90
2023-04-28T16:38:07.273Z,23.90
2023-04-28T16:40:58.911Z,23.80
2023-04-28T16:43:50.624Z,23.80
2023-04-28T16:46:43.864Z,23.90
2023-04-28T16:49:35.901Z,23.70
2023-04-28T16:52:28.852Z,23.70
2023-04-28T16:55:20.320Z,23.70
2023-04-28T16:58:13.198Z,23.60
2023-04-28T17:01:04.521Z,23.40
2023-04-28T17:03:56.331Z,23.50
2023-04-28T17:06:47.684Z,23.50
2023-04-28T17:09:39.268Z,23.60
2023-04-28T17:12:30.788Z,23.50
2023-04-28T17:15:24.120Z,23.50
2023-04-28T17:18:15.396Z,23.30
2023-04-28T17:21:07.560Z,23.20
2023-04-28T17:23:59.616Z,23.10
2023-04-28T17:26:51.263Z,23.10
2023-04-28T17:29:43.545Z,23.10
2023-04-28T17:32:36.585Z,23.00
2023-04-28T17:35:28.166Z,22.90
2023-04-28T17:38:22.838Z,22.80
2023-04-28T17:41:15.305Z,22.80
2023-04-28T17:44:06.920Z,22.70
2023-04-28T17:46:58.729Z,22.60
2023-04-28T17:49:50.494Z,22.50
2023-04-28T17:52:44.105Z,22.50
2023-04-28T17:55:35.391Z,22.40
2023-04-28T17:58:27.619Z,22.40
2023-04-28T18:01:19.056Z,22.30
2023-04-28T18:04:11.285Z,22.30
2023-04-28T18:07:06.729Z,22.30
2023-04-28T18:09:59.125Z,22.20
2023-04-28T18:15:32.827Z,22.20
2023-04-28T18:18:30.530Z,22.10
2023-04-28T18:21:20.793Z,22.10
2023-04-28T18:29:31.003Z,21.90
2023-04-28T18:32:22.260Z,21.90
2023-04-28T18:35:15.187Z,21.90
2023-04-28T18:40:47.103Z,21.70
2023-04-28T18:43:38.240Z,21.70
2023-04-28T18:49:19.426Z,21.60
2023-04-28T18:52:14.141Z,21.50
2023-04-28T18:57:54.352Z,21.50
2023-04-28T19:00:45.894Z,21.50
2023-04-28T19:06:17.954Z,21.40
2023-04-28T19:11:48.158Z,21.40
2023-04-28T19:14:39.228Z,21.30
2023-04-28T19:17:30.704Z,21.30
2023-04-28T19:23:03.830Z,21.20
2023-04-28T19:25:57.618Z,21.30
2023-04-28T19:28:48.811Z,21.30
2023-04-28T19:31:40.244Z,21.20
2023-04-28T19:34:31.896Z,21.30
2023-04-28T19:40:05.107Z,21.50
2023-04-28T19:42:56.345Z,21.60
2023-04-28T19:45:47.867Z,21.80
2023-04-28T19:48:41.035Z,21.90
2023-04-28T19:54:10.593Z,21.40
2023-04-28T19:57:02.290Z,21.10
2023-04-28T19:59:53.958Z,21.00
2023-04-28T20:02:45.989Z,20.90
2023-04-28T20:05:39.752Z,20.30
2023-04-28T20:08:31.106Z,19.80
2023-04-28T20:11:22.423Z,19.50
2023-04-28T20:14:14.083Z,19.30
2023-04-28T20:17:07.635Z,19.20
2023-04-28T20:22:42.175Z,18.90
2023-04-28T20:28:11.622Z,18.60
2023-04-28T20:31:02.994Z,18.60
2023-04-28T20:33:54.437Z,18.60
2023-04-28T20:36:46.068Z,18.60
2023-04-28T20:39:37.832Z,18.60
2023-04-28T20:42:29.358Z,18.60
2023-04-28T20:47:59.883Z,18.60
2023-04-28T20:50:52.911Z,18.70
2023-04-28T20:56:29.633Z,18.80
2023-04-28T20:59:21.111Z,18.90
2023-04-28T21:02:12.561Z,18.90
2023-04-28T21:05:04.138Z,18.90
2023-04-28T21:07:55.814Z,18.80
2023-04-28T21:13:30.961Z,18.80
2023-04-28T21:16:22.534Z,18.60
2023-04-28T21:19:13.645Z,18.50
2023-04-28T21:24:43.946Z,18.60
2023-04-28T21:27:35.269Z,18.50
2023-04-28T21:33:11.699Z,18.50
2023-04-28T21:36:07.317Z,18.50
2023-04-28T21:38:58.257Z,18.50
2023-04-28T21:41:49.311Z,18.40
2023-04-28T21:44:41.084Z,18.40
2023-04-28T21:47:32.674Z,18.40
2023-04-28T21:53:03.153Z,18.30
2023-04-28T21:55:54.198Z,18.20
2023-04-28T21:58:46.064Z,18.20
2023-04-28T22:01:38.756Z,18.30
2023-04-28T22:04:31.227Z,18.30
2023-04-28T22:07:22.871Z,18.40
2023-04-28T22:10:15.021Z,18.30
2023-04-28T22:13:06.699Z,18.30
2023-04-28T22:18:37.364Z,18.30
2023-04-28T22:21:28.763Z,18.20
2023-04-28T22:24:20.290Z,18.10
2023-04-28T22:27:11.683Z,18.10
2023-04-28T22:32:44.864Z,18.00
2023-04-28T22:38:15.366Z,17.90
2023-04-28T22:41:06.388Z,17.80
2023-04-28T22:43:57.697Z,17.80
2023-04-28T22:46:48.873Z,17.70
2023-04-28T22:49:39.826Z,17.70
2023-04-28T22:52:31.722Z,17.70
2023-04-28T22:55:23.484Z,17.50
2023-04-28T22:58:14.591Z,17.40
2023-04-28T23:01:06.388Z,17.40
2023-04-28T23:03:57.898Z,17.30
2023-04-28T23:06:49.437Z,17.30
2023-04-28T23:09:41.073Z,17.30
2023-04-28T23:12:32.566Z,17.20
2023-04-28T23:18:04.950Z,17.20
2023-04-28T23:23:36.952Z,17.20
2023-04-28T23:26:28.306Z,17.20
2023-04-28T23:29:19.892Z,17.30
2023-04-28T23:34:50.900Z,17.30
2023-04-28T23:37:42.091Z,17.30
2023-04-28T23:40:33.125Z,17.30
2023-04-28T23:43:24.348Z,17.30
2023-04-28T23:46:15.734Z,17.30
2023-04-28T23:49:07.335Z,17.20
2023-04-28T23:54:36.732Z,17.10
2023-04-28T23:57:27.820Z,17.10
